ADDS METAR Data INFO
IDs: Format: Raw Decoded Include TAF

Data at: 0715 UTC 24 Jun 2018

KHHG 240655Z AUTO 26004KT 10SM OVC090 18/18 A2984 RMK AO2 T01830176
KHHG 240635Z AUTO 25003KT 10SM OVC090 19/18 A2984 RMK AO2 T01850178
KHHG 240615Z AUTO 24004KT 10SM OVC090 19/18 A2983 RMK AO2 T01860179
KHHG 240555Z AUTO 25004KT 10SM OVC090 19/18 A2983 RMK AO2 T01860179 10210 20186
KHHG 240535Z AUTO 27003KT 10SM SCT065 OVC090 19/18 A2983 RMK AO2 T01870180
KHHG 240515Z AUTO 26005KT 10SM SCT065 OVC080 19/18 A2983 RMK AO2 T01860180
KHHG 240455Z AUTO 25003KT 10SM SCT065 OVC080 19/18 A2983 RMK AO2 T01880181 402360180
KHHG 240435Z AUTO 00000KT 10SM SCT050 OVC080 19/18 A2982 RMK AO2 T01880181
KHHG 240415Z AUTO 24004KT 10SM OVC050 19/18 A2982 RMK AO2 T01880181
KHHG 240355Z AUTO 26004KT 10SM OVC050 19/18 A2981 RMK AO2 T01880181
KHHG 240335Z AUTO 26005KT 10SM OVC050 19/18 A2981 RMK AO2 T01880181
KHHG 240315Z AUTO 25003KT 10SM OVC048 19/18 A2981 RMK AO2 T01900183
KHHG 240255Z AUTO 26005KT 10SM BKN041 OVC049 19/18 A2982 RMK AO2 T01900182
KHHG 240235Z AUTO 26007KT 10SM BKN039 OVC050 19/18 A2982 RMK AO2 T01920180
KHHG 240215Z AUTO 26006KT 10SM SCT014 BKN026 OVC038 19/18 A2981 RMK AO2 T01920180
KHHG 240155Z AUTO 28006KT 10SM SCT019 BKN026 OVC044 20/18 A2980 RMK AO2 T01960176
KHHG 240135Z AUTO 27004KT 10SM SCT043 SCT060 OVC070 20/18 A2980 RMK AO2 T01980179
KHHG 240115Z AUTO 26005KT 10SM SCT060 OVC070 20/18 A2980 RMK AO2 T02000180
KHHG 240055Z AUTO 25005KT 10SM OVC070 20/18 A2980 RMK AO2 T02020177
KHHG 240035Z AUTO 26005KT 10SM OVC070 21/18 A2980 RMK AO2 T02050177
KHHG 240015Z AUTO 26005KT 10SM SCT050 OVC070 21/18 A2979 RMK AO2 T02070181
KHHG 232355Z AUTO 27006KT 10SM SCT048 OVC060 21/18 A2979 RMK AO2 T02100183 10236 20204
KHHG 232335Z AUTO 26004KT 10SM SCT037 SCT046 OVC060 21/19 A2979 RMK AO2 T02120189
KHHG 232315Z AUTO 25003KT 10SM BKN046 OVC060 21/19 A2979 RMK AO2 T02130189
KHHG 232255Z AUTO 26006KT 10SM BKN046 OVC060 22/19 A2978 RMK AO2 T02150188
KHHG 232235Z AUTO 26005KT 10SM SCT025 BKN049 OVC060 22/19 A2978 RMK AO2 T02150185
KHHG 232215Z AUTO 25004KT 10SM BKN025 BKN033 OVC039 22/19 A2978 RMK AO2 T02150185
KHHG 232155Z AUTO 26006KT 10SM BKN023 OVC031 22/18 A2978 RMK AO2 T02180183
KHHG 232135Z AUTO 25005KT 10SM BKN023 OVC030 22/19 A2978 RMK AO2 T02180185
KHHG 232115Z AUTO 25006KT 10SM BKN023 BKN030 OVC035 23/18 A2978 RMK AO2 T02260181
KHHG 232055Z AUTO 27006KT 10SM BKN022 BKN026 OVC060 23/18 A2977 RMK AO2 T02260183
KHHG 232035Z AUTO 27006KT 10SM BKN024 BKN031 23/19 A2977 RMK AO2 T02300187
KHHG 232015Z AUTO 25009KT 230V290 10SM SCT034 23/19 A2977 RMK AO2 T02310188
KHHG 231955Z AUTO 27007KT 10SM BKN032 23/18 A2977 RMK AO2 T02250184
KHHG 231935Z AUTO 25009G15KT 10SM SCT019 BKN027 OVC047 22/18 A2977 RMK AO2 T02230184
KHHG 231915Z AUTO 25006KT 10SM SCT017 BKN024 OVC029 22/19 A2977 RMK AO2 T02150185
KHHG 231855Z AUTO 26008KT 230V300 10SM OVC029 22/19 A2977 RMK AO2 T02220190
KHHG 231835Z AUTO 27007KT 10SM BKN024 OVC029 21/19 A2977 RMK AO2 T02130187
KHHG 231815Z AUTO 25006KT 10SM SCT013 BKN019 OVC029 21/19 A2977 RMK AO2 T02050185
KHHG 231755Z AUTO 26010G15KT 10SM BKN017 OVC023 20/19 A2977 RMK AO2 T02020187 10208 20180
KHHG 231735Z AUTO 26006KT 10SM SCT012 OVC020 20/19 A2976 RMK AO2 T02040186
KHHG 231715Z AUTO 26010KT 10SM SCT011 OVC018 21/19 A2976 RMK AO2 T02060187
KHHG 231655Z AUTO 26006KT 10SM BKN009 OVC015 20/19 A2977 RMK AO2 T02010190
KHHG 231635Z AUTO 25009KT 7SM OVC007 19/18 A2977 RMK AO2 T01880181
KHHG 231615Z AUTO 25008KT 5SM BR OVC007 19/18 A2977 RMK AO2 T01850178
KHHG 231555Z AUTO 25012G15KT 7SM BKN007 OVC012 19/18 A2977 RMK AO2 T01880181
KHHG 231535Z AUTO 25007KT 5SM BR OVC007 19/19 A2977 RMK AO2 T01920185
KHHG 231515Z AUTO 27008KT 2 1/2SM -RA BKN009 OVC013 19/19 A2976 RMK AO2 T01910185
KHHG 231455Z AUTO 27008KT 10SM OVC009 20/19 A2976 RMK AO2 T01950187
KHHG 231435Z AUTO 26006KT 10SM OVC009 19/18 A2975 RMK AO2 T01910184
KHHG 231415Z AUTO 26007KT 10SM OVC009 19/19 A2975 RMK AO2 T01930186
KHHG 231355Z AUTO 26008KT 10SM BKN009 OVC014 19/19 A2975 RMK AO2 T01930186
KHHG 231335Z AUTO 26006KT 10SM BKN009 OVC012 19/18 A2974 RMK AO2 T01900182
KHHG 231315Z AUTO 28007KT 10SM BKN005 BKN010 OVC014 19/18 A2974 RMK AO2 T01850178
KHHG 231255Z AUTO 26006KT 7SM OVC005 18/18 A2973 RMK AO2 T01830176
KHHG 231235Z AUTO 26005KT 5SM BR OVC003 18/18 A2973 RMK AO2 LTG DSNT E T01820175
KHHG 231215Z AUTO 26006KT 5SM BR OVC003 18/17 A2973 RMK AO2 T01810174
KHHG 231155Z AUTO 25004KT 5SM BR OVC003 18/17 A2972 RMK AO2 P0002 60003 70095 T01800173 10193 20180
KHHG 231135Z AUTO 25004KT 2 1/2SM BR OVC003 18/18 A2972 RMK AO2 P0002 T01840176
KHHG 231115Z AUTO 28003KT 2SM -DZ OVC003 18/18 A2971 RMK AO2 P0001 T01830176
KHHG 231055Z AUTO 28005KT 1 1/4SM BR OVC003 18/18 A2971 RMK AO2 T01830176
KHHG 231035Z AUTO 28003KT 2SM RA OVC003 18/18 A2970 RMK AO2 T01820175
KHHG 231015Z AUTO 29004KT 5SM BR OVC003 18/18 A2969 RMK AO2 T01820175
KHHG 230955Z AUTO 27005KT 5SM BR OVC003 18/18 A2969 RMK AO2 T01830176
KHHG 230935Z AUTO 28004KT 10SM BKN003 OVC007 19/18 A2968 RMK AO2 T01850179
KHHG 230915Z AUTO 00000KT 10SM BKN005 OVC011 19/18 A2968 RMK AO2 T01870180
KHHG 230855Z AUTO 00000KT 10SM SCT005 BKN011 OVC026 19/18 A2967 RMK AO2 60001 T01870180
KHHG 230835Z AUTO 00000KT 10SM SCT003 BKN013 OVC027 19/18 A2967 RMK AO2 T01880181
KHHG 230815Z AUTO 00000KT 10SM -DZ SCT003 SCT007 OVC014 19/18 A2967 RMK AO2 T01880181
KHHG 230755Z AUTO 01003KT 3SM RA OVC005 19/19 A2967 RMK AO2 T01910185
KHHG 230735Z AUTO 01003KT 3SM BR OVC003 19/19 A2967 RMK AO2 T01920185
KHHG 230715Z AUTO 01003KT 2 1/2SM BR OVC003 19/19 A2967 RMK AO2 T01930186
KHHG 230655Z AUTO 00000KT 2 1/2SM -RA BKN003 BKN036 OVC045 19/19 A2967 RMK AO2 T01920185
KHHG 230635Z AUTO 00000KT 3SM BR SCT005 BKN037 OVC049 19/19 A2967 RMK AO2 T01920185
KHHG 230615Z AUTO 00000KT 5SM BR BKN005 BKN021 OVC037 19/19 A2967 RMK AO2 T01920185
KHHG 230555Z AUTO 00000KT 7SM SCT009 BKN026 BKN035 19/18 A2967 RMK AO2 P0048 60070 T01900184 10206 20184
KHHG 230535Z AUTO 00000KT 7SM SCT012 BKN028 OVC065 19/19 A2967 RMK AO2 P0048 T01910185
KHHG 230515Z AUTO 07004KT 1 3/4SM +RA BKN004 OVC015 19/18 A2967 RMK AO2 LTG DSNT E P0048 T01860180
KHHG 230455Z AUTO 10005KT 2SM +RA OVC006 20/19 A2968 RMK AO2 LTG DSNT E P0018 T01950188 402350170
KHHG 230435Z AUTO 04003KT 7SM BKN006 OVC012 20/19 A2968 RMK AO2 T01960190
KHHG 230415Z AUTO 00000KT 7SM BKN010 OVC014 20/19 A2968 RMK AO2 T01960189
KHHG 230355Z AUTO 07004KT 10SM BKN014 OVC020 20/19 A2967 RMK AO2 LTG DSNT E AND SE T01970190
KHHG 230335Z AUTO 07004KT 10SM OVC017 20/19 A2969 RMK AO2 T01960190
KHHG 230315Z AUTO 00000KT 7SM SCT007 SCT010 OVC019 20/19 A2968 RMK AO2 T01960190
KHHG 230255Z AUTO 04003KT 7SM BKN007 BKN010 OVC017 20/19 A2968 RMK AO2 T01960190
KHHG 230235Z AUTO 01003KT 7SM BKN007 OVC013 20/19 A2969 RMK AO2 T01970190
KHHG 230215Z AUTO 00000KT 7SM VCTS BKN007 BKN013 BKN024 20/19 A2968 RMK AO2 LTG DSNT W T01950189
KHHG 230155Z AUTO 04003KT 7SM SCT007 OVC013 20/19 A2967 RMK AO2 LTG DSNT S THRU NW T01980191
KHHG 230135Z AUTO 04004KT 10SM OVC008 20/19 A2967 RMK AO2 T02000192
KHHG 230115Z AUTO 04005KT 10SM OVC008 20/19 A2967 RMK AO2 T02010194
KHHG 230055Z AUTO 03003KT 10SM BKN008 OVC015 20/20 A2967 RMK AO2 T02010195
KHHG 230035Z AUTO 06004KT 10SM BKN008 OVC013 20/20 A2967 RMK AO2 T02040196
KHHG 230015Z AUTO 05004KT 10SM OVC008 21/20 A2967 RMK AO2 T02050199
KHHG 222355Z AUTO 09006KT 10SM OVC008 21/20 A2967 RMK AO2 LTG DSNT SW AND W 60014 T02060200 10235 20203
KHHG 222335Z AUTO 10004KT 10SM OVC008 21/20 A2966 RMK AO2 LTG DSNT E AND SW T02070200
KHHG 222315Z AUTO 05006KT 10SM BKN008 BKN014 OVC120 21/20 A2966 RMK AO2 T02100203
KHHG 222255Z AUTO 08007KT 10SM SCT008 BKN012 OVC024 21/20 A2967 RMK AO2 LTG DSNT E AND W T02100203
KHHG 222235Z AUTO 05003KT 10SM SCT008 BKN012 BKN018 21/21 A2967 RMK AO2 LTG DSNT W T02120205
KHHG 222215Z AUTO 00000KT 10SM TS SCT015 BKN022 BKN030 21/20 A2968 RMK AO2 LTG DSNT E T02060199
KHHG 222155Z AUTO 00000KT 1 3/4SM +RA BKN019 OVC025 20/20 A2968 RMK AO2 LTG DSNT E P0014 T02040196
KHHG 222135Z AUTO 21003KT 7SM -VCTSRA SCT021 BKN027 OVC090 21/21 A2969 RMK AO2 LTG DSNT E THRU W P0004 T02120205
KHHG 222115Z AUTO 00000KT 4SM RA SCT050 SCT075 OVC095 22/21 A2968 RMK AO2 LTG DSNT E AND SE P0002 T02170209
KHHG 222055Z AUTO 03003KT 10SM -RA SCT075 BKN110 22/20 A2967 RMK AO2 LTG DSNT SE THRU SW T02230201
KHHG 222035Z AUTO 03005KT 10SM SCT019 SCT120 23/20 A2967 RMK AO2 LTG DSNT S T02270201
KHHG 222015Z AUTO 03004KT 10SM SCT018 BKN026 23/20 A2968 RMK AO2 LTG DSNT S T02320202
KHHG 221955Z AUTO 04004KT 10SM SCT018 BKN026 23/20 A2969 RMK AO2 T02320204
KHHG 221935Z AUTO 07004KT 10SM SCT018 SCT024 SCT032 23/20 A2969 RMK AO2 T02300199